sensor_id;sensor_type;location;lat;lon;timestamp;temperature;humidity
8099;DHT22;4092;47.876;9.372;2023-07-20T00:00:14;17.80;99.90
8099;DHT22;4092;47.876;9.372;2023-07-20T00:02:41;17.80;99.90
8099;DHT22;4092;47.876;9.372;2023-07-20T00:05:08;17.80;99.90
8099;DHT22;4092;47.876;9.372;2023-07-20T00:07:36;17.80;99.90
8099;DHT22;4092;47.876;9.372;2023-07-20T00:10:05;17.80;99.90
8099;DHT22;4092;47.876;9.372;2023-07-20T00:12:32;17.80;99.90
8099;DHT22;4092;47.876;9.372;2023-07-20T00:14:59;17.80;99.90
8099;DHT22;4092;47.876;9.372;2023-07-20T00:17:26;17.80;99.90
8099;DHT22;4092;47.876;9.372;2023-07-20T00:19:53;17.80;99.90
8099;DHT22;4092;47.876;9.372;2023-07-20T00:22:20;17.80;99.90
8099;DHT22;4092;47.876;9.372;2023-07-20T00:24:46;17.90;99.90
8099;DHT22;4092;47.876;9.372;2023-07-20T00:27:16;17.90;99.90
8099;DHT22;4092;47.876;9.372;2023-07-20T00:29:43;17.90;99.90
8099;DHT22;4092;47.876;9.372;2023-07-20T00:32:10;17.90;99.90
8099;DHT22;4092;47.876;9.372;2023-07-20T00:34:37;17.90;99.90
8099;DHT22;4092;47.876;9.372;2023-07-20T00:37:04;17.90;99.90
8099;DHT22;4092;47.876;9.372;2023-07-20T00:39:31;17.90;99.90
8099;DHT22;4092;47.876;9.372;2023-07-20T00:41:58;17.90;99.90
8099;DHT22;4092;47.876;9.372;2023-07-20T00:44:27;17.90;99.90
8099;DHT22;4092;47.876;9.372;2023-07-20T00:46:54;17.90;99.90
8099;DHT22;4092;47.876;9.372;2023-07-20T00:49:21;17.90;99.90
8099;DHT22;4092;47.876;9.372;2023-07-20T00:51:49;17.90;99.90
8099;DHT22;4092;47.876;9.372;2023-07-20T00:54:17;17.90;99.90
8099;DHT22;4092;47.876;9.372;2023-07-20T00:56:44;17.90;99.90
8099;DHT22;4092;47.876;9.372;2023-07-20T00:59:12;17.80;99.90
8099;DHT22;4092;47.876;9.372;2023-07-20T01:01:40;17.80;99.90
8099;DHT22;4092;47.876;9.372;2023-07-20T01:04:07;17.80;99.90
8099;DHT22;4092;47.876;9.372;2023-07-20T01:06:43;17.80;99.90
8099;DHT22;4092;47.876;9.372;2023-07-20T01:09:16;17.80;99.90
8099;DHT22;4092;47.876;9.372;2023-07-20T01:11:49;17.80;99.90
8099;DHT22;4092;47.876;9.372;2023-07-20T01:14:20;17.70;99.90
8099;DHT22;4092;47.876;9.372;2023-07-20T01:16:49;17.70;99.90
8099;DHT22;4092;47.876;9.372;2023-07-20T01:19:17;17.70;99.90
8099;DHT22;4092;47.876;9.372;2023-07-20T01:21:49;17.70;99.90
8099;DHT22;4092;47.876;9.372;2023-07-20T01:24:50;17.70;99.90
8099;DHT22;4092;47.876;9.372;2023-07-20T01:27:43;17.70;99.90
8099;DHT22;4092;47.876;9.372;2023-07-20T01:33:17;17.60;99.90
8099;DHT22;4092;47.876;9.372;2023-07-20T01:35:50;17.60;99.90
8099;DHT22;4092;47.876;9.372;2023-07-20T01:38:19;17.60;99.90
8099;DHT22;4092;47.876;9.372;2023-07-20T01:40:46;17.50;99.90
8099;DHT22;4092;47.876;9.372;2023-07-20T01:43:13;17.50;99.90
8099;DHT22;4092;47.876;9.372;2023-07-20T01:45:40;17.50;99.90
8099;DHT22;4092;47.876;9.372;2023-07-20T01:48:07;17.40;99.90
8099;DHT22;4092;47.876;9.372;2023-07-20T01:50:36;17.40;99.90
8099;DHT22;4092;47.876;9.372;2023-07-20T01:53:02;17.40;99.90
8099;DHT22;4092;47.876;9.372;2023-07-20T01:55:29;17.30;99.90
8099;DHT22;4092;47.876;9.372;2023-07-20T01:57:56;17.30;99.90
8099;DHT22;4092;47.876;9.372;2023-07-20T02:00:25;17.20;99.90
8099;DHT22;4092;47.876;9.372;2023-07-20T02:02:52;17.20;99.90
8099;DHT22;4092;47.876;9.372;2023-07-20T02:05:19;17.10;99.90
8099;DHT22;4092;47.876;9.372;2023-07-20T02:07:47;17.00;99.90
8099;DHT22;4092;47.876;9.372;2023-07-20T02:10:15;16.90;99.90
8099;DHT22;4092;47.876;9.372;2023-07-20T02:12:41;16.80;99.90
8099;DHT22;4092;47.876;9.372;2023-07-20T02:15:09;16.70;99.90
8099;DHT22;4092;47.876;9.372;2023-07-20T02:17:36;16.70;99.90
8099;DHT22;4092;47.876;9.372;2023-07-20T02:20:07;16.70;99.90
8099;DHT22;4092;47.876;9.372;2023-07-20T02:22:35;16.60;99.90
8099;DHT22;4092;47.876;9.372;2023-07-20T02:25:04;16.60;99.90
8099;DHT22;4092;47.876;9.372;2023-07-20T02:27:32;16.50;99.90
8099;DHT22;4092;47.876;9.372;2023-07-20T02:30:00;16.40;99.90
8099;DHT22;4092;47.876;9.372;2023-07-20T02:32:27;16.40;99.90
8099;DHT22;4092;47.876;9.372;2023-07-20T02:34:54;16.40;99.90
8099;DHT22;4092;47.876;9.372;2023-07-20T02:37:21;16.30;99.90
8099;DHT22;4092;47.876;9.372;2023-07-20T02:39:48;16.30;99.90
8099;DHT22;4092;47.876;9.372;2023-07-20T02:42:16;16.30;99.90
8099;DHT22;4092;47.876;9.372;2023-07-20T02:44:44;16.30;99.90
8099;DHT22;4092;47.876;9.372;2023-07-20T02:47:12;16.20;99.90
8099;DHT22;4092;47.876;9.372;2023-07-20T02:49:39;16.20;99.90
8099;DHT22;4092;47.876;9.372;2023-07-20T02:52:06;16.20;99.90
8099;DHT22;4092;47.876;9.372;2023-07-20T02:54:33;16.20;99.90
8099;DHT22;4092;47.876;9.372;2023-07-20T02:57:00;16.10;99.90
8099;DHT22;4092;47.876;9.372;2023-07-20T02:59:28;16.10;99.90
8099;DHT22;4092;47.876;9.372;2023-07-20T03:01:55;16.10;99.90
8099;DHT22;4092;47.876;9.372;2023-07-20T03:04:23;16.10;99.90
8099;DHT22;4092;47.876;9.372;2023-07-20T03:06:52;16.10;99.90
8099;DHT22;4092;47.876;9.372;2023-07-20T03:09:19;16.10;99.90
8099;DHT22;4092;47.876;9.372;2023-07-20T03:11:46;16.10;99.90
8099;DHT22;4092;47.876;9.372;2023-07-20T03:14:13;16.10;99.90
8099;DHT22;4092;47.876;9.372;2023-07-20T03:16:41;16.10;99.90
8099;DHT22;4092;47.876;9.372;2023-07-20T03:19:08;16.20;99.90
8099;DHT22;4092;47.876;9.372;2023-07-20T03:21:35;16.10;99.90
8099;DHT22;4092;47.876;9.372;2023-07-20T03:24:06;16.10;99.90
8099;DHT22;4092;47.876;9.372;2023-07-20T03:26:34;16.20;99.90
8099;DHT22;4092;47.876;9.372;2023-07-20T03:29:00;16.20;99.90
8099;DHT22;4092;47.876;9.372;2023-07-20T03:31:27;16.10;99.90
8099;DHT22;4092;47.876;9.372;2023-07-20T03:33:56;16.10;99.90
8099;DHT22;4092;47.876;9.372;2023-07-20T03:36:23;16.00;99.90
8099;DHT22;4092;47.876;9.372;2023-07-20T03:38:49;16.00;99.90
8099;DHT22;4092;47.876;9.372;2023-07-20T03:41:16;15.90;99.90
8099;DHT22;4092;47.876;9.372;2023-07-20T03:43:45;15.90;99.90
8099;DHT22;4092;47.876;9.372;2023-07-20T03:46:12;15.90;99.90
8099;DHT22;4092;47.876;9.372;2023-07-20T03:48:39;15.80;99.90
8099;DHT22;4092;47.876;9.372;2023-07-20T03:51:07;15.90;99.90
8099;DHT22;4092;47.876;9.372;2023-07-20T03:53:34;15.90;99.90
8099;DHT22;4092;47.876;9.372;2023-07-20T03:56:01;15.90;99.90
8099;DHT22;4092;47.876;9.372;2023-07-20T03:58:28;15.90;99.90
8099;DHT22;4092;47.876;9.372;2023-07-20T04:00:55;15.90;99.90
8099;DHT22;4092;47.876;9.372;2023-07-20T04:03:23;15.90;99.90
8099;DHT22;4092;47.876;9.372;2023-07-20T04:05:53;15.90;99.90
8099;DHT22;4092;47.876;9.372;2023-07-20T04:08:22;16.00;99.90
8099;DHT22;4092;47.876;9.372;2023-07-20T04:10:50;15.90;99.90
8099;DHT22;4092;47.876;9.372;2023-07-20T04:13:17;15.90;99.90
8099;DHT22;4092;47.876;9.372;2023-07-20T04:15:44;15.90;99.90
8099;DHT22;4092;47.876;9.372;2023-07-20T04:18:11;15.90;99.90
8099;DHT22;4092;47.876;9.372;2023-07-20T04:20:38;15.90;99.90
8099;DHT22;4092;47.876;9.372;2023-07-20T04:23:05;15.90;99.90
8099;DHT22;4092;47.876;9.372;2023-07-20T04:25:33;15.90;99.90
8099;DHT22;4092;47.876;9.372;2023-07-20T04:28:04;15.90;99.90
8099;DHT22;4092;47.876;9.372;2023-07-20T04:30:34;15.90;99.90
8099;DHT22;4092;47.876;9.372;2023-07-20T04:33:01;15.90;99.90
8099;DHT22;4092;47.876;9.372;2023-07-20T04:35:49;16.00;99.90
8099;DHT22;4092;47.876;9.372;2023-07-20T04:38:16;16.00;99.90
8099;DHT22;4092;47.876;9.372;2023-07-20T04:40:46;16.00;99.90
8099;DHT22;4092;47.876;9.372;2023-07-20T04:43:14;16.00;99.90
8099;DHT22;4092;47.876;9.372;2023-07-20T04:45:41;16.00;99.90
8099;DHT22;4092;47.876;9.372;2023-07-20T04:48:09;16.10;99.90
8099;DHT22;4092;47.876;9.372;2023-07-20T04:50:37;16.10;99.90
8099;DHT22;4092;47.876;9.372;2023-07-20T04:53:04;16.10;99.90
8099;DHT22;4092;47.876;9.372;2023-07-20T04:55:31;16.10;99.90
8099;DHT22;4092;47.876;9.372;2023-07-20T04:58:00;16.20;99.90
8099;DHT22;4092;47.876;9.372;2023-07-20T05:00:27;16.20;99.90
8099;DHT22;4092;47.876;9.372;2023-07-20T05:02:54;16.20;99.90
8099;DHT22;4092;47.876;9.372;2023-07-20T05:05:21;16.30;99.90
8099;DHT22;4092;47.876;9.372;2023-07-20T05:07:48;16.30;99.90
8099;DHT22;4092;47.876;9.372;2023-07-20T05:10:16;16.40;99.90
8099;DHT22;4092;47.876;9.372;2023-07-20T05:12:43;16.40;99.90
8099;DHT22;4092;47.876;9.372;2023-07-20T05:15:12;16.50;99.90
8099;DHT22;4092;47.876;9.372;2023-07-20T05:17:39;16.50;99.90
8099;DHT22;4092;47.876;9.372;2023-07-20T05:20:07;16.50;99.90
8099;DHT22;4092;47.876;9.372;2023-07-20T05:22:35;16.60;99.90
8099;DHT22;4092;47.876;9.372;2023-07-20T05:25:06;16.60;99.90
8099;DHT22;4092;47.876;9.372;2023-07-20T05:27:33;16.60;99.90
8099;DHT22;4092;47.876;9.372;2023-07-20T05:30:00;16.70;99.90
8099;DHT22;4092;47.876;9.372;2023-07-20T05:32:28;16.70;99.90
8099;DHT22;4092;47.876;9.372;2023-07-20T05:34:56;16.70;99.90
8099;DHT22;4092;47.876;9.372;2023-07-20T05:37:23;16.80;99.90
8099;DHT22;4092;47.876;9.372;2023-07-20T05:39:50;16.80;99.90
8099;DHT22;4092;47.876;9.372;2023-07-20T05:42:17;16.80;99.90
8099;DHT22;4092;47.876;9.372;2023-07-20T05:44:44;16.80;99.90
8099;DHT22;4092;47.876;9.372;2023-07-20T05:47:12;16.90;99.90
8099;DHT22;4092;47.876;9.372;2023-07-20T05:49:41;17.00;99.90
8099;DHT22;4092;47.876;9.372;2023-07-20T05:52:08;17.00;99.90
8099;DHT22;4092;47.876;9.372;2023-07-20T05:54:35;17.00;99.90
8099;DHT22;4092;47.876;9.372;2023-07-20T05:57:02;17.10;99.90
8099;DHT22;4092;47.876;9.372;2023-07-20T05:59:28;17.10;99.90
8099;DHT22;4092;47.876;9.372;2023-07-20T06:01:56;17.20;99.90
8099;DHT22;4092;47.876;9.372;2023-07-20T06:04:23;17.20;99.90
8099;DHT22;4092;47.876;9.372;2023-07-20T06:06:51;17.20;99.90
8099;DHT22;4092;47.876;9.372;2023-07-20T06:09:18;17.20;99.90
8099;DHT22;4092;47.876;9.372;2023-07-20T06:11:45;17.20;99.90
8099;DHT22;4092;47.876;9.372;2023-07-20T06:14:12;17.20;99.90
8099;DHT22;4092;47.876;9.372;2023-07-20T06:16:39;17.30;99.90
8099;DHT22;4092;47.876;9.372;2023-07-20T06:19:06;17.30;99.90
8099;DHT22;4092;47.876;9.372;2023-07-20T06:21:33;17.30;99.90
8099;DHT22;4092;47.876;9.372;2023-07-20T06:24:01;17.30;99.90
8099;DHT22;4092;47.876;9.372;2023-07-20T06:26:28;17.30;99.90
8099;DHT22;4092;47.876;9.372;2023-07-20T06:28:55;17.30;99.90
8099;DHT22;4092;47.876;9.372;2023-07-20T06:31:22;17.40;99.90
8099;DHT22;4092;47.876;9.372;2023-07-20T06:33:49;17.40;99.90
8099;DHT22;4092;47.876;9.372;2023-07-20T06:36:17;17.30;99.90
8099;DHT22;4092;47.876;9.372;2023-07-20T06:38:44;17.30;99.90
8099;DHT22;4092;47.876;9.372;2023-07-20T06:41:12;17.40;99.90
8099;DHT22;4092;47.876;9.372;2023-07-20T06:43:39;17.40;99.90
8099;DHT22;4092;47.876;9.372;2023-07-20T06:46:06;17.50;99.90
8099;DHT22;4092;47.876;9.372;2023-07-20T06:48:33;17.50;99.90
8099;DHT22;4092;47.876;9.372;2023-07-20T06:51:00;17.60;99.90
8099;DHT22;4092;47.876;9.372;2023-07-20T06:53:28;17.60;99.90
8099;DHT22;4092;47.876;9.372;2023-07-20T06:55:55;17.60;99.90
8099;DHT22;4092;47.876;9.372;2023-07-20T06:58:24;17.70;99.90
8099;DHT22;4092;47.876;9.372;2023-07-20T07:00:51;17.90;99.90
8099;DHT22;4092;47.876;9.372;2023-07-20T07:03:18;17.90;99.90
8099;DHT22;4092;47.876;9.372;2023-07-20T07:05:47;18.00;99.90
8099;DHT22;4092;47.876;9.372;2023-07-20T07:08:14;18.10;99.90
8099;DHT22;4092;47.876;9.372;2023-07-20T07:10:41;18.20;99.90
8099;DHT22;4092;47.876;9.372;2023-07-20T07:13:08;18.40;99.90
8099;DHT22;4092;47.876;9.372;2023-07-20T07:15:36;18.40;99.90
8099;DHT22;4092;47.876;9.372;2023-07-20T07:18:03;18.50;99.90
8099;DHT22;4092;47.876;9.372;2023-07-20T07:20:30;18.60;99.90
8099;DHT22;4092;47.876;9.372;2023-07-20T07:22:57;18.70;99.90
8099;DHT22;4092;47.876;9.372;2023-07-20T07:25:24;18.90;99.90
8099;DHT22;4092;47.876;9.372;2023-07-20T07:27:53;18.80;99.90
8099;DHT22;4092;47.876;9.372;2023-07-20T07:30:22;18.90;99.90
8099;DHT22;4092;47.876;9.372;2023-07-20T07:32:50;19.10;99.90
8099;DHT22;4092;47.876;9.372;2023-07-20T07:35:17;19.10;99.90
8099;DHT22;4092;47.876;9.372;2023-07-20T07:37:44;19.10;99.90
8099;DHT22;4092;47.876;9.372;2023-07-20T07:40:12;19.10;99.90
8099;DHT22;4092;47.876;9.372;2023-07-20T07:42:39;19.00;99.90
8099;DHT22;4092;47.876;9.372;2023-07-20T07:45:07;19.10;99.90
8099;DHT22;4092;47.876;9.372;2023-07-20T07:47:34;19.20;99.90
8099;DHT22;4092;47.876;9.372;2023-07-20T07:50:03;19.40;99.90
8099;DHT22;4092;47.876;9.372;2023-07-20T07:52:30;19.50;99.90
8099;DHT22;4092;47.876;9.372;2023-07-20T07:54:57;19.60;99.90
8099;DHT22;4092;47.876;9.372;2023-07-20T07:57:25;19.70;99.90
8099;DHT22;4092;47.876;9.372;2023-07-20T07:59:52;19.70;99.90
8099;DHT22;4092;47.876;9.372;2023-07-20T08:02:19;19.70;99.90
8099;DHT22;4092;47.876;9.372;2023-07-20T08:04:46;19.80;99.90
8099;DHT22;4092;47.876;9.372;2023-07-20T08:07:15;20.00;99.90
8099;DHT22;4092;47.876;9.372;2023-07-20T08:09:42;19.90;99.90
8099;DHT22;4092;47.876;9.372;2023-07-20T08:12:09;20.00;99.90
8099;DHT22;4092;47.876;9.372;2023-07-20T08:14:36;20.10;99.90
8099;DHT22;4092;47.876;9.372;2023-07-20T08:17:03;20.20;99.90
8099;DHT22;4092;47.876;9.372;2023-07-20T08:19:30;20.40;99.90
8099;DHT22;4092;47.876;9.372;2023-07-20T08:21:57;20.50;99.90
8099;DHT22;4092;47.876;9.372;2023-07-20T08:24:26;20.40;99.90
8099;DHT22;4092;47.876;9.372;2023-07-20T08:26:53;20.30;99.90
8099;DHT22;4092;47.876;9.372;2023-07-20T08:29:20;20.20;99.90
8099;DHT22;4092;47.876;9.372;2023-07-20T08:31:47;20.30;99.90
8099;DHT22;4092;47.876;9.372;2023-07-20T08:34:14;20.50;99.90
8099;DHT22;4092;47.876;9.372;2023-07-20T08:36:41;20.60;99.90
8099;DHT22;4092;47.876;9.372;2023-07-20T08:39:08;20.70;99.90
8099;DHT22;4092;47.876;9.372;2023-07-20T08:41:36;20.90;99.90
8099;DHT22;4092;47.876;9.372;2023-07-20T08:44:05;20.90;99.90
8099;DHT22;4092;47.876;9.372;2023-07-20T08:46:33;20.70;99.90
8099;DHT22;4092;47.876;9.372;2023-07-20T08:49:02;20.80;99.90
8099;DHT22;4092;47.876;9.372;2023-07-20T08:51:30;20.80;99.90
8099;DHT22;4092;47.876;9.372;2023-07-20T08:53:58;20.80;99.90
8099;DHT22;4092;47.876;9.372;2023-07-20T08:56:26;20.70;99.90
8099;DHT22;4092;47.876;9.372;2023-07-20T08:58:54;20.60;99.90
8099;DHT22;4092;47.876;9.372;2023-07-20T09:01:21;20.40;99.90
8099;DHT22;4092;47.876;9.372;2023-07-20T09:03:49;20.30;99.90
8099;DHT22;4092;47.876;9.372;2023-07-20T09:06:16;20.30;99.90
8099;DHT22;4092;47.876;9.372;2023-07-20T09:08:43;20.40;99.90
8099;DHT22;4092;47.876;9.372;2023-07-20T09:11:12;20.60;99.90
8099;DHT22;4092;47.876;9.372;2023-07-20T09:13:40;20.70;99.90
8099;DHT22;4092;47.876;9.372;2023-07-20T09:16:09;20.90;99.90
8099;DHT22;4092;47.876;9.372;2023-07-20T09:18:40;20.90;99.90
8099;DHT22;4092;47.876;9.372;2023-07-20T09:21:06;20.90;99.90
8099;DHT22;4092;47.876;9.372;2023-07-20T09:23:35;21.00;99.90
8099;DHT22;4092;47.876;9.372;2023-07-20T09:26:09;21.10;99.90
8099;DHT22;4092;47.876;9.372;2023-07-20T09:28:41;21.10;99.90
8099;DHT22;4092;47.876;9.372;2023-07-20T09:31:17;21.20;99.90
8099;DHT22;4092;47.876;9.372;2023-07-20T09:33:44;21.20;99.90
8099;DHT22;4092;47.876;9.372;2023-07-20T09:36:12;21.20;99.90
8099;DHT22;4092;47.876;9.372;2023-07-20T09:38:39;21.20;99.90
8099;DHT22;4092;47.876;9.372;2023-07-20T09:41:06;21.10;99.90
8099;DHT22;4092;47.876;9.372;2023-07-20T09:43:34;21.00;99.90
8099;DHT22;4092;47.876;9.372;2023-07-20T09:46:01;20.80;99.90
8099;DHT22;4092;47.876;9.372;2023-07-20T09:48:30;20.70;99.90
8099;DHT22;4092;47.876;9.372;2023-07-20T09:50:57;21.00;99.90
8099;DHT22;4092;47.876;9.372;2023-07-20T09:53:25;21.40;99.90
8099;DHT22;4092;47.876;9.372;2023-07-20T09:55:53;21.50;99.90
8099;DHT22;4092;47.876;9.372;2023-07-20T09:58:21;21.50;99.90
8099;DHT22;4092;47.876;9.372;2023-07-20T10:00:51;21.50;99.90
8099;DHT22;4092;47.876;9.372;2023-07-20T10:03:19;21.60;99.90
8099;DHT22;4092;47.876;9.372;2023-07-20T10:05:51;21.60;99.90
8099;DHT22;4092;47.876;9.372;2023-07-20T10:08:19;21.80;99.90
8099;DHT22;4092;47.876;9.372;2023-07-20T10:10:47;21.90;99.90
8099;DHT22;4092;47.876;9.372;2023-07-20T10:13:19;22.00;99.90
8099;DHT22;4092;47.876;9.372;2023-07-20T10:15:50;22.00;99.90
8099;DHT22;4092;47.876;9.372;2023-07-20T10:18:22;22.00;99.90
8099;DHT22;4092;47.876;9.372;2023-07-20T10:20:54;22.10;99.90
8099;DHT22;4092;47.876;9.372;2023-07-20T10:23:22;22.30;99.90
8099;DHT22;4092;47.876;9.372;2023-07-20T10:25:50;22.40;99.90
8099;DHT22;4092;47.876;9.372;2023-07-20T10:28:17;22.40;99.90
8099;DHT22;4092;47.876;9.372;2023-07-20T10:30:44;22.40;99.90
8099;DHT22;4092;47.876;9.372;2023-07-20T10:33:12;22.20;99.90
8099;DHT22;4092;47.876;9.372;2023-07-20T10:35:54;22.20;99.90
8099;DHT22;4092;47.876;9.372;2023-07-20T10:38:39;22.00;99.90
8099;DHT22;4092;47.876;9.372;2023-07-20T10:41:16;22.20;99.90
8099;DHT22;4092;47.876;9.372;2023-07-20T10:43:44;22.40;99.90
8099;DHT22;4092;47.876;9.372;2023-07-20T10:46:12;22.50;99.90
8099;DHT22;4092;47.876;9.372;2023-07-20T10:49:00;22.50;99.90
8099;DHT22;4092;47.876;9.372;2023-07-20T10:51:29;22.60;99.90
8099;DHT22;4092;47.876;9.372;2023-07-20T10:53:56;22.70;99.90
8099;DHT22;4092;47.876;9.372;2023-07-20T10:56:26;22.70;99.90
8099;DHT22;4092;47.876;9.372;2023-07-20T10:58:58;22.80;99.90
8099;DHT22;4092;47.876;9.372;2023-07-20T11:01:28;22.80;99.90
8099;DHT22;4092;47.876;9.372;2023-07-20T11:03:58;22.70;99.90
8099;DHT22;4092;47.876;9.372;2023-07-20T11:06:31;22.40;99.90
8099;DHT22;4092;47.876;9.372;2023-07-20T11:09:07;22.50;99.90
8099;DHT22;4092;47.876;9.372;2023-07-20T11:11:37;22.70;99.90
8099;DHT22;4092;47.876;9.372;2023-07-20T11:14:06;22.80;99.90
8099;DHT22;4092;47.876;9.372;2023-07-20T11:16:35;22.60;99.90
8099;DHT22;4092;47.876;9.372;2023-07-20T11:19:03;22.50;99.90
8099;DHT22;4092;47.876;9.372;2023-07-20T11:21:35;22.30;99.90
8099;DHT22;4092;47.876;9.372;2023-07-20T11:24:04;22.50;99.90
8099;DHT22;4092;47.876;9.372;2023-07-20T11:26:40;22.70;99.90
8099;DHT22;4092;47.876;9.372;2023-07-20T11:29:07;22.90;99.90
8099;DHT22;4092;47.876;9.372;2023-07-20T11:31:35;22.80;99.90
8099;DHT22;4092;47.876;9.372;2023-07-20T11:34:02;22.60;99.90
8099;DHT22;4092;47.876;9.372;2023-07-20T11:36:29;22.70;99.90
8099;DHT22;4092;47.876;9.372;2023-07-20T11:38:58;22.60;99.90
8099;DHT22;4092;47.876;9.372;2023-07-20T11:41:26;22.50;99.90
8099;DHT22;4092;47.876;9.372;2023-07-20T11:43:54;22.50;99.90
8099;DHT22;4092;47.876;9.372;2023-07-20T11:46:21;22.60;99.90
8099;DHT22;4092;47.876;9.372;2023-07-20T11:48:48;22.60;99.90
8099;DHT22;4092;47.876;9.372;2023-07-20T11:51:15;22.70;99.90
8099;DHT22;4092;47.876;9.372;2023-07-20T11:53:44;22.70;99.90
8099;DHT22;4092;47.876;9.372;2023-07-20T11:56:13;22.70;99.90
8099;DHT22;4092;47.876;9.372;2023-07-20T11:58:43;22.80;99.90
8099;DHT22;4092;47.876;9.372;2023-07-20T12:01:11;22.90;99.90
8099;DHT22;4092;47.876;9.372;2023-07-20T12:03:38;23.20;99.90
8099;DHT22;4092;47.876;9.372;2023-07-20T12:06:08;23.70;99.90
8099;DHT22;4092;47.876;9.372;2023-07-20T12:08:38;24.30;99.90
8099;DHT22;4092;47.876;9.372;2023-07-20T12:11:06;24.80;99.90
8099;DHT22;4092;47.876;9.372;2023-07-20T12:13:39;25.10;99.90
8099;DHT22;4092;47.876;9.372;2023-07-20T12:16:09;25.40;99.90
8099;DHT22;4092;47.876;9.372;2023-07-20T12:18:37;25.70;99.90
8099;DHT22;4092;47.876;9.372;2023-07-20T12:21:06;25.80;99.90
8099;DHT22;4092;47.876;9.372;2023-07-20T12:23:37;26.00;99.90
8099;DHT22;4092;47.876;9.372;2023-07-20T12:26:06;25.80;99.90
8099;DHT22;4092;47.876;9.372;2023-07-20T12:28:39;25.80;99.90
8099;DHT22;4092;47.876;9.372;2023-07-20T12:31:07;25.80;99.90
8099;DHT22;4092;47.876;9.372;2023-07-20T12:33:35;25.50;99.90
8099;DHT22;4092;47.876;9.372;2023-07-20T12:36:02;25.50;99.90
8099;DHT22;4092;47.876;9.372;2023-07-20T12:38:29;25.70;99.90
8099;DHT22;4092;47.876;9.372;2023-07-20T12:40:57;25.50;99.40
8099;DHT22;4092;47.876;9.372;2023-07-20T12:43:26;25.60;98.90
8099;DHT22;4092;47.876;9.372;2023-07-20T12:45:54;25.90;99.80
8099;DHT22;4092;47.876;9.372;2023-07-20T12:48:22;26.30;99.60
8099;DHT22;4092;47.876;9.372;2023-07-20T12:50:49;26.50;98.40
8099;DHT22;4092;47.876;9.372;2023-07-20T12:53:16;26.70;97.60
8099;DHT22;4092;47.876;9.372;2023-07-20T12:55:43;26.90;96.60
8099;DHT22;4092;47.876;9.372;2023-07-20T12:58:11;27.30;99.30
8099;DHT22;4092;47.876;9.372;2023-07-20T13:00:38;27.30;96.80
8099;DHT22;4092;47.876;9.372;2023-07-20T13:03:06;27.40;95.30
8099;DHT22;4092;47.876;9.372;2023-07-20T13:05:34;27.50;98.50
8099;DHT22;4092;47.876;9.372;2023-07-20T13:08:01;27.50;95.60
8099;DHT22;4092;47.876;9.372;2023-07-20T13:10:28;27.60;96.40
8099;DHT22;4092;47.876;9.372;2023-07-20T13:12:55;27.60;95.30
8099;DHT22;4092;47.876;9.372;2023-07-20T13:15:24;27.90;97.80
8099;DHT22;4092;47.876;9.372;2023-07-20T13:17:55;28.10;98.30
8099;DHT22;4092;47.876;9.372;2023-07-20T13:20:23;28.00;99.90
8099;DHT22;4092;47.876;9.372;2023-07-20T13:22:50;27.90;97.10
8099;DHT22;4092;47.876;9.372;2023-07-20T13:25:17;27.50;94.30
8099;DHT22;4092;47.876;9.372;2023-07-20T13:27:45;27.40;97.00
8099;DHT22;4092;47.876;9.372;2023-07-20T13:30:12;27.60;94.70
8099;DHT22;4092;47.876;9.372;2023-07-20T13:32:42;27.70;95.00
8099;DHT22;4092;47.876;9.372;2023-07-20T13:35:09;27.80;97.20
8099;DHT22;4092;47.876;9.372;2023-07-20T13:37:37;27.40;95.50
8099;DHT22;4092;47.876;9.372;2023-07-20T13:40:06;26.70;93.90
8099;DHT22;4092;47.876;9.372;2023-07-20T13:42:34;26.20;95.10
8099;DHT22;4092;47.876;9.372;2023-07-20T13:45:01;25.80;96.80
8099;DHT22;4092;47.876;9.372;2023-07-20T13:47:28;25.60;96.20
8099;DHT22;4092;47.876;9.372;2023-07-20T13:49:55;25.50;95.60
8099;DHT22;4092;47.876;9.372;2023-07-20T13:52:22;26.00;97.40
8099;DHT22;4092;47.876;9.372;2023-07-20T13:54:50;26.60;95.00
8099;DHT22;4092;47.876;9.372;2023-07-20T13:57:17;27.10;96.30
8099;DHT22;4092;47.876;9.372;2023-07-20T13:59:44;27.60;97.10
8099;DHT22;4092;47.876;9.372;2023-07-20T14:02:13;28.00;93.70
8099;DHT22;4092;47.876;9.372;2023-07-20T14:04:40;28.10;94.60
8099;DHT22;4092;47.876;9.372;2023-07-20T14:07:07;28.30;92.80
8099;DHT22;4092;47.876;9.372;2023-07-20T14:09:34;28.40;93.90
8099;DHT22;4092;47.876;9.372;2023-07-20T14:12:04;28.60;93.60
8099;DHT22;4092;47.876;9.372;2023-07-20T14:14:31;28.70;92.00
8099;DHT22;4092;47.876;9.372;2023-07-20T14:16:58;28.70;91.50
8099;DHT22;4092;47.876;9.372;2023-07-20T14:19:25;29.00;91.90
8099;DHT22;4092;47.876;9.372;2023-07-20T14:21:52;29.30;94.50
8099;DHT22;4092;47.876;9.372;2023-07-20T14:24:20;29.40;91.60
8099;DHT22;4092;47.876;9.372;2023-07-20T14:26:47;29.50;91.70
8099;DHT22;4092;47.876;9.372;2023-07-20T14:29:15;29.40;90.80
8099;DHT22;4092;47.876;9.372;2023-07-20T14:31:43;29.70;91.20
8099;DHT22;4092;47.876;9.372;2023-07-20T14:34:10;29.80;90.10
8099;DHT22;4092;47.876;9.372;2023-07-20T14:36:38;29.70;90.00
8099;DHT22;4092;47.876;9.372;2023-07-20T14:39:04;29.60;90.70
8099;DHT22;4092;47.876;9.372;2023-07-20T14:41:31;29.20;90.40
8099;DHT22;4092;47.876;9.372;2023-07-20T14:43:58;29.20;91.10
8099;DHT22;4092;47.876;9.372;2023-07-20T14:46:27;29.30;90.40
8099;DHT22;4092;47.876;9.372;2023-07-20T14:48:53;29.30;89.80
8099;DHT22;4092;47.876;9.372;2023-07-20T14:51:20;29.50;90.30
8099;DHT22;4092;47.876;9.372;2023-07-20T14:53:47;29.50;89.20
8099;DHT22;4092;47.876;9.372;2023-07-20T14:56:14;29.90;89.40
8099;DHT22;4092;47.876;9.372;2023-07-20T14:58:41;30.00;88.40
8099;DHT22;4092;47.876;9.372;2023-07-20T15:01:08;29.90;88.40
8099;DHT22;4092;47.876;9.372;2023-07-20T15:03:36;29.70;86.50
8099;DHT22;4092;47.876;9.372;2023-07-20T15:06:03;29.70;90.70
8099;DHT22;4092;47.876;9.372;2023-07-20T15:08:30;29.70;91.60
8099;DHT22;4092;47.876;9.372;2023-07-20T15:10:58;29.70;90.10
8099;DHT22;4092;47.876;9.372;2023-07-20T15:13:25;29.80;90.80
8099;DHT22;4092;47.876;9.372;2023-07-20T15:15:52;30.10;91.80
8099;DHT22;4092;47.876;9.372;2023-07-20T15:18:19;30.30;91.60
8099;DHT22;4092;47.876;9.372;2023-07-20T15:20:47;30.60;90.70
8099;DHT22;4092;47.876;9.372;2023-07-20T15:23:19;30.50;91.20
8099;DHT22;4092;47.876;9.372;2023-07-20T15:25:45;30.60;90.30
8099;DHT22;4092;47.876;9.372;2023-07-20T15:28:12;30.40;85.30
8099;DHT22;4092;47.876;9.372;2023-07-20T15:30:39;30.00;90.10
8099;DHT22;4092;47.876;9.372;2023-07-20T15:33:06;29.50;92.00
8099;DHT22;4092;47.876;9.372;2023-07-20T15:35:33;28.70;91.40
8099;DHT22;4092;47.876;9.372;2023-07-20T15:38:01;28.10;92.70
8099;DHT22;4092;47.876;9.372;2023-07-20T15:40:28;27.60;93.90
8099;DHT22;4092;47.876;9.372;2023-07-20T15:42:55;27.30;93.90
8099;DHT22;4092;47.876;9.372;2023-07-20T15:45:22;27.40;90.70
8099;DHT22;4092;47.876;9.372;2023-07-20T15:47:49;27.40;90.20
8099;DHT22;4092;47.876;9.372;2023-07-20T15:50:16;27.20;90.90
8099;DHT22;4092;47.876;9.372;2023-07-20T15:52:43;26.90;90.40
8099;DHT22;4092;47.876;9.372;2023-07-20T15:55:11;26.50;89.90
8099;DHT22;4092;47.876;9.372;2023-07-20T15:57:38;26.40;92.30
8099;DHT22;4092;47.876;9.372;2023-07-20T16:00:06;26.50;90.80
8099;DHT22;4092;47.876;9.372;2023-07-20T16:02:35;26.60;90.40
8099;DHT22;4092;47.876;9.372;2023-07-20T16:05:02;26.80;92.10
8099;DHT22;4092;47.876;9.372;2023-07-20T16:07:29;27.20;91.20
8099;DHT22;4092;47.876;9.372;2023-07-20T16:09:57;27.60;92.60